Time;durP1;ratioP1;P1;durP2;ratioP2;P2;SDS_P1;SDS_P2;PMS_P1;PMS_P2;Temp;Humidity;BMP_temperature;BMP_pressure;BME280_temperature;BME280_humidity;BME280_pressure;Samples;Min_cycle;Max_cycle;Signal;HPM_P1;HPM_P2
2023/01/31 00:01:12;;;;;;;3.00;1.00;;;16.90;58.40;;;;;;5111828;28;20206;-61
2023/01/31 00:04:01;;;;;;;4.97;1.85;;;16.90;59.10;;;;;;5111888;28;20268;-61
2023/01/31 00:06:50;;;;;;;8.02;1.60;;;17.00;59.00;;;;;;5115127;28;20219;-61
2023/01/31 00:09:39;;;;;;;5.07;1.40;;;16.90;58.60;;;;;;5114971;28;20209;-61
2023/01/31 00:12:28;;;;;;;3.88;1.50;;;17.00;58.90;;;;;;5116118;28;20616;-61
2023/01/31 00:15:17;;;;;;;5.28;1.45;;;17.00;60.90;;;;;;5115935;28;20282;-61
2023/01/31 00:18:06;;;;;;;2.42;1.27;;;17.00;59.00;;;;;;5116611;28;20223;-61
2023/01/31 00:20:54;;;;;;;4.78;1.77;;;17.00;58.80;;;;;;5115428;28;20337;-61
2023/01/31 00:23:43;;;;;;;2.65;1.20;;;17.00;58.80;;;;;;5117138;28;20278;-61
2023/01/31 00:26:33;;;;;;;3.40;1.00;;;17.00;59.30;;;;;;5114587;28;20292;-61
2023/01/31 00:29:23;;;;;;;6.97;1.58;;;17.00;59.10;;;;;;5115286;28;20206;-61
2023/01/31 00:32:11;;;;;;;3.13;1.00;;;17.00;58.90;;;;;;5115916;28;20207;-61
2023/01/31 00:34:59;;;;;;;10.57;1.70;;;17.00;58.80;;;;;;5115461;28;20671;-61
2023/01/31 00:37:47;;;;;;;2.10;1.00;;;17.00;59.00;;;;;;5115217;28;20263;-61
2023/01/31 00:40:35;;;;;;;5.18;1.40;;;17.00;59.40;;;;;;5115623;28;20579;-61
2023/01/31 00:43:24;;;;;;;3.47;1.35;;;17.00;58.80;;;;;;5115498;28;20740;-61
2023/01/31 00:46:13;;;;;;;5.68;1.92;;;17.10;59.50;;;;;;5113494;28;20306;-61
2023/01/31 00:49:01;;;;;;;4.40;1.17;;;17.00;59.00;;;;;;5114597;28;20675;-62
2023/01/31 00:51:49;;;;;;;7.15;1.17;;;17.10;59.40;;;;;;5114800;28;20286;-61
2023/01/31 00:54:38;;;;;;;4.25;1.73;;;17.10;59.10;;;;;;5115670;28;20284;-61
2023/01/31 00:57:26;;;;;;;5.38;1.48;;;17.00;58.80;;;;;;5105051;28;20227;-61
2023/01/31 01:00:15;;;;;;;3.85;1.20;;;17.00;59.00;;;;;;5095041;28;20211;-61
2023/01/31 01:03:05;;;;;;;5.50;1.20;;;17.00;59.10;;;;;;5094782;28;20192;-61
2023/01/31 01:05:53;;;;;;;3.50;1.67;;;16.90;58.90;;;;;;5094425;28;20309;-61
2023/01/31 01:08:42;;;;;;;5.85;1.17;;;16.90;59.00;;;;;;5094755;28;20606;-61
2023/01/31 01:11:32;;;;;;;4.45;1.42;;;16.90;59.00;;;;;;5094751;28;20325;-62
2023/01/31 01:14:21;;;;;;;6.00;1.38;;;16.90;59.00;;;;;;5094532;28;20246;-61
2023/01/31 01:17:09;;;;;;;3.17;1.30;;;16.90;59.00;;;;;;5094228;28;20579;-61
2023/01/31 01:20:02;;;;;;;3.33;1.15;;;16.90;59.30;;;;;;5094300;28;20278;-61
2023/01/31 01:22:50;;;;;;;3.10;1.00;;;16.90;59.50;;;;;;5094633;28;20196;-61
2023/01/31 01:25:42;;;;;;;5.20;1.48;;;16.90;59.40;;;;;;5094851;28;20758;-61
2023/01/31 01:28:33;;;;;;;4.05;1.50;;;16.90;59.40;;;;;;5094244;28;20233;-61
2023/01/31 01:31:28;;;;;;;4.45;1.30;;;16.90;59.20;;;;;;5094449;28;20215;-61
2023/01/31 01:34:18;;;;;;;3.22;1.45;;;17.00;59.20;;;;;;5098834;28;20200;-61
2023/01/31 01:37:10;;;;;;;3.53;1.50;;;16.90;58.80;;;;;;5113466;28;20234;-61
2023/01/31 01:39:58;;;;;;;7.97;4.25;;;16.90;59.10;;;;;;5112397;28;20204;-61
2023/01/31 01:42:46;;;;;;;11.48;5.70;;;16.90;59.00;;;;;;5107539;28;20473;-61
2023/01/31 01:45:34;;;;;;;10.70;5.18;;;16.90;59.20;;;;;;5094212;28;20249;-61
2023/01/31 01:48:30;;;;;;;10.88;5.78;;;16.90;59.20;;;;;;5094324;28;20192;-62
2023/01/31 01:51:19;;;;;;;6.45;3.05;;;16.90;59.10;;;;;;5094011;28;20286;-61
2023/01/31 01:54:15;;;;;;;5.13;2.67;;;16.80;59.40;;;;;;5094025;28;20281;-61
2023/01/31 01:57:06;;;;;;;4.03;2.00;;;16.90;59.10;;;;;;5100060;28;20214;-61
2023/01/31 02:00:04;;;;;;;5.70;2.55;;;16.90;59.40;;;;;;5114589;28;20287;-61
2023/01/31 02:02:55;;;;;;;6.03;1.60;;;16.80;59.30;;;;;;5114751;28;20195;-61
2023/01/31 02:05:46;;;;;;;3.95;1.65;;;16.80;59.30;;;;;;5113467;28;20218;-61
2023/01/31 02:08:37;;;;;;;4.57;2.97;;;16.80;59.10;;;;;;5113998;28;20270;-61
2023/01/31 02:11:28;;;;;;;3.08;1.10;;;16.80;59.50;;;;;;5112813;28;20233;-61
2023/01/31 02:14:18;;;;;;;6.35;1.60;;;16.80;59.20;;;;;;5113327;28;20199;-61
2023/01/31 02:17:11;;;;;;;1.88;1.30;;;16.70;59.20;;;;;;5111992;28;20230;-61
2023/01/31 02:20:11;;;;;;;3.08;1.45;;;16.70;59.40;;;;;;5113855;28;20788;-61
2023/01/31 02:23:18;;;;;;;3.10;1.10;;;16.70;59.40;;;;;;5113215;28;20288;-61
2023/01/31 02:26:41;;;;;;;3.35;1.10;;;16.70;59.00;;;;;;5116718;28;20598;-61
2023/01/31 02:29:53;;;;;;;1.75;1.20;;;16.70;59.30;;;;;;5116355;28;20206;-61
2023/01/31 02:32:59;;;;;;;1.88;1.50;;;16.70;59.20;;;;;;5112842;28;20278;-61
2023/01/31 02:35:58;;;;;;;2.42;1.27;;;16.70;60.50;;;;;;5112804;28;20356;-61
2023/01/31 02:38:57;;;;;;;5.07;1.38;;;16.70;60.50;;;;;;5110993;27;20253;-61
2023/01/31 02:41:52;;;;;;;3.53;1.35;;;16.80;60.30;;;;;;5112464;28;20325;-61
2023/01/31 02:45:00;;;;;;;3.40;1.20;;;16.90;60.30;;;;;;5113275;28;20676;-61
2023/01/31 02:48:06;;;;;;;1.58;1.10;;;17.10;59.50;;;;;;5114019;28;20231;-61
2023/01/31 02:51:04;;;;;;;3.05;1.20;;;17.10;59.10;;;;;;5113231;28;20199;-61
2023/01/31 02:54:09;;;;;;;2.65;1.10;;;17.10;59.60;;;;;;5113364;28;20329;-61
2023/01/31 02:56:56;;;;;;;2.67;1.35;;;17.20;59.30;;;;;;5105807;28;20220;-61
2023/01/31 02:59:45;;;;;;;4.97;1.30;;;17.20;59.20;;;;;;5091872;28;20345;-61
2023/01/31 03:02:33;;;;;;;2.88;1.52;;;17.20;58.70;;;;;;5093163;28;20744;-61
2023/01/31 03:05:22;;;;;;;2.65;1.17;;;17.10;66.40;;;;;;5092385;28;20206;-61
2023/01/31 03:08:15;;;;;;;7.55;1.05;;;17.20;59.10;;;;;;5092239;28;20688;-61
2023/01/31 03:11:05;;;;;;;5.90;1.60;;;17.20;59.10;;;;;;5091490;28;20200;-61
2023/01/31 03:14:01;;;;;;;6.03;1.25;;;17.20;59.00;;;;;;5091544;28;20232;-61
2023/01/31 03:20:06;;;;;;;4.32;1.15;;;17.10;59.10;;;;;;5092610;28;20734;-61
2023/01/31 03:22:59;;;;;;;4.63;1.48;;;17.10;58.80;;;;;;5092001;28;20238;-61
2023/01/31 03:25:48;;;;;;;8.13;1.48;;;17.10;58.80;;;;;;5090985;28;20212;-61
2023/01/31 03:28:41;;;;;;;4.53;1.65;;;17.10;58.90;;;;;;5091717;28;20229;-61
2023/01/31 03:31:35;;;;;;;2.63;1.00;;;17.10;59.20;;;;;;5091159;28;20215;-61
2023/01/31 03:34:24;;;;;;;2.95;1.25;;;17.40;59.20;;;;;;5091997;28;20204;-61
2023/01/31 03:37:19;;;;;;;2.90;1.30;;;17.00;59.20;;;;;;5091580;28;20302;-61
2023/01/31 03:40:16;;;;;;;2.60;1.10;;;16.90;59.10;;;;;;5091065;28;20215;-61
2023/01/31 03:43:10;;;;;;;1.80;1.25;;;17.00;58.80;;;;;;5091063;28;20225;-61
2023/01/31 03:46:01;;;;;;;3.42;1.45;;;16.90;58.90;;;;;;5090784;28;20306;-61
2023/01/31 03:48:53;;;;;;;2.83;1.20;;;16.80;59.40;;;;;;5091949;28;20329;-61
2023/01/31 03:51:46;;;;;;;4.18;1.20;;;16.80;59.40;;;;;;5091422;28;20278;-61
2023/01/31 03:54:41;;;;;;;4.35;1.35;;;16.90;59.30;;;;;;5091970;28;20199;-61
2023/01/31 03:57:34;;;;;;;2.25;1.05;;;16.80;59.30;;;;;;5091895;28;20224;-61
2023/01/31 04:00:25;;;;;;;3.15;1.40;;;16.90;59.30;;;;;;5090829;28;20220;-61
2023/01/31 04:03:18;;;;;;;3.38;1.23;;;16.80;59.20;;;;;;5091982;28;20192;-61
2023/01/31 04:06:08;;;;;;;4.18;1.42;;;16.80;59.20;;;;;;5090764;28;20669;-61
2023/01/31 04:08:56;;;;;;;2.53;1.20;;;16.80;59.50;;;;;;5090071;28;20318;-61
2023/01/31 04:11:50;;;;;;;3.42;1.17;;;16.80;59.60;;;;;;5091086;28;20228;-61
2023/01/31 04:14:40;;;;;;;3.47;1.25;;;16.80;59.70;;;;;;5090281;28;20196;-61
2023/01/31 04:17:28;;;;;;;2.45;1.20;;;16.80;60.30;;;;;;5089953;28;20223;-61
2023/01/31 04:20:16;;;;;;;6.20;1.33;;;16.80;59.40;;;;;;5091296;28;20337;-61
2023/01/31 04:23:04;;;;;;;4.07;1.48;;;16.80;59.50;;;;;;5090823;28;20193;-61
2023/01/31 04:25:53;;;;;;;4.43;1.38;;;16.80;59.70;;;;;;5090435;28;20848;-61
2023/01/31 04:28:41;;;;;;;3.63;1.33;;;16.80;59.70;;;;;;5090773;28;20210;-61
2023/01/31 04:31:31;;;;;;;3.25;1.25;;;16.80;60.00;;;;;;5090746;28;20275;-61
2023/01/31 04:34:19;;;;;;;5.32;1.40;;;16.80;59.80;;;;;;5090172;28;20200;-61
2023/01/31 04:37:07;;;;;;;4.15;2.45;;;16.90;60.20;;;;;;5091841;28;20846;-61
2023/01/31 04:39:55;;;;;;;5.50;1.20;;;16.80;59.70;;;;;;5090065;28;20273;-61
2023/01/31 04:42:44;;;;;;;3.00;1.08;;;16.90;60.00;;;;;;5090100;28;20283;-61
2023/01/31 04:45:32;;;;;;;2.58;1.40;;;16.80;59.50;;;;;;5131537;22;20235;-58
2023/01/31 04:48:21;;;;;;;4.45;1.42;;;16.90;60.10;;;;;;5113252;28;20289;-60
2023/01/31 04:51:09;;;;;;;2.92;1.23;;;16.80;60.00;;;;;;5112993;28;20199;-59
2023/01/31 04:53:57;;;;;;;2.10;1.15;;;16.80;59.60;;;;;;5113722;28;20796;-60
2023/01/31 04:56:45;;;;;;;2.92;1.08;;;16.80;60.00;;;;;;5110916;28;20729;-60
2023/01/31 04:59:33;;;;;;;5.20;1.33;;;16.80;60.40;;;;;;5095136;28;20265;-61
2023/01/31 05:02:22;;;;;;;2.00;1.15;;;16.80;60.40;;;;;;5094612;28;20279;-61
2023/01/31 05:05:12;;;;;;;3.95;1.58;;;16.80;60.30;;;;;;5094713;28;20242;-61
2023/01/31 05:08:00;;;;;;;2.38;1.23;;;16.80;60.10;;;;;;5095170;28;20195;-60
2023/01/31 05:10:48;;;;;;;3.63;1.58;;;16.80;60.30;;;;;;5094152;28;20188;-60
2023/01/31 05:13:37;;;;;;;2.55;1.10;;;16.70;62.10;;;;;;5094982;28;20196;-60
2023/01/31 05:16:25;;;;;;;3.13;1.10;;;16.80;60.10;;;;;;5094013;28;20204;-62
2023/01/31 05:19:14;;;;;;;4.90;1.67;;;16.70;60.30;;;;;;5094853;28;20216;-62
2023/01/31 05:22:04;;;;;;;3.22;1.00;;;16.70;60.10;;;;;;5093304;28;20686;-59
2023/01/31 05:24:52;;;;;;;4.70;1.35;;;16.70;60.30;;;;;;5094748;28;20243;-61
2023/01/31 05:27:40;;;;;;;2.15;1.10;;;16.70;60.80;;;;;;5094252;28;20196;-61
2023/01/31 05:30:28;;;;;;;2.83;1.27;;;16.80;61.00;;;;;;5094223;28;20199;-60
2023/01/31 05:33:19;;;;;;;1.90;1.15;;;16.80;61.10;;;;;;5095242;28;20199;-60
2023/01/31 05:36:08;;;;;;;14.52;1.50;;;16.80;60.80;;;;;;5093851;28;20603;-61
2023/01/31 05:38:57;;;;;;;2.53;1.35;;;16.80;60.30;;;;;;5094431;28;20215;-61
2023/01/31 05:41:45;;;;;;;3.20;1.58;;;16.90;60.40;;;;;;5093773;28;20283;-61
2023/01/31 05:44:33;;;;;;;5.53;1.55;;;16.90;60.20;;;;;;5094208;28;20353;-60
2023/01/31 05:47:23;;;;;;;3.42;1.50;;;16.90;60.30;;;;;;5094738;28;20192;-58
2023/01/31 05:50:11;;;;;;;7.13;1.55;;;16.90;60.20;;;;;;5094404;28;20196;-60
2023/01/31 05:53:01;;;;;;;3.72;1.02;;;16.90;60.50;;;;;;5094387;28;20634;-61
2023/01/31 05:55:52;;;;;;;2.40;1.20;;;17.00;60.60;;;;;;5094400;28;20216;-61
2023/01/31 05:58:40;;;;;;;4.88;1.52;;;16.90;60.20;;;;;;5113349;28;20283;-60
2023/01/31 06:01:28;;;;;;;3.28;1.05;;;17.00;59.80;;;;;;5113877;28;20218;-61
2023/01/31 06:04:16;;;;;;;5.97;1.40;;;17.00;60.20;;;;;;5113152;28;20217;-62
2023/01/31 06:07:04;;;;;;;2.15;1.13;;;17.00;60.50;;;;;;5114008;28;20313;-60
2023/01/31 06:09:52;;;;;;;3.03;1.10;;;17.00;60.40;;;;;;5114306;28;20196;-62
2023/01/31 06:12:41;;;;;;;4.80;1.42;;;17.00;60.40;;;;;;5113692;28;20195;-62
2023/01/31 06:15:29;;;;;;;2.75;1.00;;;17.00;60.30;;;;;;5114403;28;20290;-59
2023/01/31 06:18:17;;;;;;;2.40;1.48;;;17.00;60.30;;;;;;5107723;28;20200;-59
2023/01/31 06:21:06;;;;;;;2.35;1.25;;;17.00;60.20;;;;;;5114125;28;20251;-61
2023/01/31 06:23:55;;;;;;;3.38;1.20;;;17.00;60.30;;;;;;5114642;28;20223;-61
2023/01/31 06:26:44;;;;;;;2.00;1.00;;;17.00;60.60;;;;;;5113811;28;20203;-63
2023/01/31 06:29:35;;;;;;;4.85;1.48;;;16.90;60.50;;;;;;5094908;28;20249;-61
2023/01/31 06:32:25;;;;;;;1.90;1.00;;;16.90;60.80;;;;;;5095471;28;20618;-61
2023/01/31 06:35:15;;;;;;;2.90;1.25;;;16.80;61.00;;;;;;5112996;28;20601;-61
2023/01/31 06:38:03;;;;;;;2.40;1.08;;;16.80;61.10;;;;;;5113951;28;20203;-62
2023/01/31 06:40:52;;;;;;;2.05;1.35;;;16.80;61.50;;;;;;5111725;28;20718;-62
2023/01/31 06:43:40;;;;;;;3.50;1.17;;;16.80;64.00;;;;;;5106219;28;20275;-62
2023/01/31 06:46:30;;;;;;;2.53;0.90;;;16.80;61.80;;;;;;5113640;28;20236;-62
2023/01/31 06:49:18;;;;;;;4.13;1.33;;;16.80;62.00;;;;;;5101203;28;20203;-62
2023/01/31 06:52:07;;;;;;;1.33;0.98;;;16.90;62.20;;;;;;5103821;28;20195;-62
2023/01/31 06:54:57;;;;;;;3.67;1.58;;;16.90;62.20;;;;;;5102457;28;20222;-61
2023/01/31 06:57:49;;;;;;;2.40;1.10;;;16.90;62.10;;;;;;5099872;28;20203;-61
2023/01/31 07:00:39;;;;;;;3.03;1.10;;;17.00;62.00;;;;;;5091692;28;20238;-61
2023/01/31 07:03:33;;;;;;;4.45;1.48;;;17.10;61.70;;;;;;5109267;28;20675;-61
2023/01/31 07:06:22;;;;;;;3.65;1.27;;;17.20;61.20;;;;;;5099657;28;20253;-61
2023/01/31 07:09:14;;;;;;;3.50;1.20;;;17.20;61.70;;;;;;5108431;28;20196;-60
2023/01/31 07:12:06;;;;;;;2.72;1.20;;;17.20;61.70;;;;;;5106551;28;20196;-61
2023/01/31 07:14:56;;;;;;;2.97;1.40;;;17.20;61.90;;;;;;5084640;28;20216;-60
2023/01/31 07:17:45;;;;;;;3.90;1.30;;;17.20;61.90;;;;;;5100948;28;20233;-61
2023/01/31 07:20:41;;;;;;;3.40;1.20;;;17.20;62.20;;;;;;5107489;28;20227;-61
2023/01/31 07:23:30;;;;;;;3.50;1.55;;;17.20;62.30;;;;;;5108435;28;20207;-61
2023/01/31 07:26:19;;;;;;;4.45;1.60;;;17.20;61.70;;;;;;5124082;28;20218;-61
2023/01/31 07:29:10;;;;;;;5.15;1.70;;;17.20;62.60;;;;;;5114637;28;20591;-60
2023/01/31 07:32:00;;;;;;;6.32;1.60;;;17.30;62.50;;;;;;5108619;28;20261;-62
2023/01/31 07:34:48;;;;;;;6.43;1.15;;;17.30;62.50;;;;;;5091880;28;20211;-61
2023/01/31 07:37:39;;;;;;;5.03;1.20;;;17.30;63.00;;;;;;5103526;28;20195;-60
2023/01/31 07:40:29;;;;;;;6.57;1.65;;;17.30;63.20;;;;;;5111986;28;20211;-60
2023/01/31 07:43:18;;;;;;;4.82;1.20;;;17.20;63.20;;;;;;5103631;28;20200;-62
2023/01/31 07:46:09;;;;;;;5.18;1.52;;;17.30;63.60;;;;;;5096621;28;20559;-60
2023/01/31 07:48:58;;;;;;;8.00;1.08;;;17.30;63.50;;;;;;5102392;28;20199;-62
2023/01/31 07:51:47;;;;;;;5.47;1.92;;;17.30;63.70;;;;;;5102986;28;20188;-61
2023/01/31 07:54:36;;;;;;;4.63;1.17;;;17.30;64.00;;;;;;5092287;28;20228;-60
2023/01/31 07:57:24;;;;;;;4.40;1.67;;;17.30;63.80;;;;;;5111159;28;20238;-61
2023/01/31 08:03:34;;;;;;;3.28;1.20;;;17.30;64.00;;;;;;5096334;28;20207;-60
2023/01/31 08:06:22;;;;;;;7.75;1.60;;;17.20;64.00;;;;;;5095457;28;20207;-61
2023/01/31 08:09:11;;;;;;;4.13;1.30;;;17.20;64.90;;;;;;5105125;28;20260;-61
2023/01/31 08:12:00;;;;;;;1.55;1.02;;;17.20;65.20;;;;;;5090643;28;20678;-61
2023/01/31 08:14:48;;;;;;;3.25;1.45;;;17.20;65.10;;;;;;5088269;28;20226;-62
2023/01/31 08:17:36;;;;;;;3.67;1.00;;;17.30;65.40;;;;;;5098067;28;20215;-62
2023/01/31 08:20:25;;;;;;;3.97;1.08;;;17.30;65.30;;;;;;5106460;28;20235;-61
2023/01/31 08:23:13;;;;;;;1.30;1.10;;;17.30;65.50;;;;;;5100535;28;20367;-60
2023/01/31 08:26:02;;;;;;;3.53;1.13;;;17.30;65.20;;;;;;5098807;28;20344;-60
2023/01/31 08:28:53;;;;;;;4.22;1.30;;;17.40;65.10;;;;;;5104679;28;20241;-61
2023/01/31 08:31:42;;;;;;;3.20;1.33;;;17.40;64.90;;;;;;5100607;28;20310;-61
2023/01/31 08:34:31;;;;;;;5.53;1.30;;;17.40;64.80;;;;;;5108841;28;20223;-61
2023/01/31 08:37:20;;;;;;;1.52;1.13;;;17.50;65.50;;;;;;5110709;28;20199;-61
2023/01/31 08:40:09;;;;;;;3.60;1.63;;;17.50;65.60;;;;;;5098270;28;20227;-61
2023/01/31 08:42:59;;;;;;;2.53;1.40;;;17.50;66.00;;;;;;5098903;28;20286;-62
2023/01/31 08:45:49;;;;;;;3.47;1.10;;;17.60;66.30;;;;;;5102950;28;20223;-62
2023/01/31 08:48:38;;;;;;;2.80;1.13;;;17.70;66.50;;;;;;5100298;28;20206;-62
2023/01/31 08:51:08;;;;;;;6.93;1.13;;;17.60;66.90;;;;;;5107177;28;20208;-62
2023/01/31 08:53:38;;;;;;;3.05;1.08;;;17.70;71.70;;;;;;5113229;28;20204;-62
2023/01/31 08:56:08;;;;;;;3.45;1.10;;;17.80;67.10;;;;;;5105686;28;20408;-61
2023/01/31 08:58:38;;;;;;;1.45;1.10;;;18.00;67.00;;;;;;5099409;28;20200;-62
2023/01/31 09:01:10;;;;;;;4.75;1.30;;;18.10;66.70;;;;;;5108916;28;20258;-62
2023/01/31 09:03:38;;;;;;;3.55;0.93;;;18.60;67.60;;;;;;5109079;28;20203;-62
2023/01/31 09:06:12;;;;;;;4.03;1.20;;;18.40;67.10;;;;;;5104453;28;20214;-62
2023/01/31 09:08:40;;;;;;;6.97;1.35;;;18.60;66.00;;;;;;5097571;28;20218;-61
2023/01/31 09:11:09;;;;;;;7.43;1.45;;;18.80;65.50;;;;;;5110172;28;20196;-62
2023/01/31 09:13:43;;;;;;;5.53;1.77;;;19.00;70.90;;;;;;5100682;28;20282;-62
2023/01/31 09:16:14;;;;;;;1.95;1.00;;;19.10;64.80;;;;;;5104552;28;20199;-62
2023/01/31 09:18:42;;;;;;;2.78;0.95;;;19.20;64.60;;;;;;5096005;28;20203;-62
2023/01/31 09:21:12;;;;;;;2.58;1.00;;;19.30;64.60;;;;;;5106086;28;20247;-62
2023/01/31 09:23:41;;;;;;;5.53;1.85;;;19.30;64.60;;;;;;5099503;28;20195;-62
2023/01/31 09:26:10;;;;;;;7.60;1.40;;;19.50;64.50;;;;;;5096983;28;20208;-61
2023/01/31 09:28:41;;;;;;;6.38;1.48;;;19.50;64.40;;;;;;5094496;28;20290;-61
2023/01/31 09:31:16;;;;;;;2.50;1.00;;;19.50;64.10;;;;;;5111283;28;20209;-62
2023/01/31 09:33:44;;;;;;;6.47;1.20;;;19.70;69.30;;;;;;5103657;28;20234;-62
2023/01/31 09:36:16;;;;;;;2.25;1.00;;;19.70;64.10;;;;;;5101149;28;20290;-62
2023/01/31 09:38:44;;;;;;;2.70;1.58;;;19.80;63.90;;;;;;5099825;28;20204;-62
2023/01/31 09:41:19;;;;;;;5.35;1.52;;;19.90;63.70;;;;;;5099939;28;20215;-61
2023/01/31 09:43:52;;;;;;;3.42;1.33;;;20.20;69.30;;;;;;5110821;28;20203;-62
2023/01/31 09:46:26;;;;;;;5.13;1.05;;;20.10;63.20;;;;;;5104203;28;20192;-61
2023/01/31 09:48:58;;;;;;;6.05;1.90;;;20.20;63.30;;;;;;5093285;28;20238;-61
2023/01/31 09:51:26;;;;;;;5.07;1.50;;;20.30;62.90;;;;;;5093604;28;20225;-61
2023/01/31 09:53:56;;;;;;;2.17;1.00;;;20.50;63.10;;;;;;5094927;28;20227;-62
2023/01/31 09:56:31;;;;;;;3.70;1.25;;;20.50;62.90;;;;;;5104853;28;20203;-62
2023/01/31 09:59:06;;;;;;;2.85;1.30;;;20.60;62.70;;;;;;5104531;28;20194;-62
2023/01/31 10:01:45;;;;;;;8.38;1.60;;;20.60;62.80;;;;;;5113733;28;20221;-62
2023/01/31 10:04:24;;;;;;;5.53;1.10;;;20.70;62.60;;;;;;5112371;28;20218;-62
2023/01/31 10:06:58;;;;;;;2.63;1.13;;;20.80;62.30;;;;;;5103606;28;20207;-61
2023/01/31 10:09:30;;;;;;;5.38;1.48;;;20.80;62.20;;;;;;5101408;28;20290;-62
2023/01/31 10:12:03;;;;;;;1.90;1.00;;;20.80;61.90;;;;;;5102991;28;20192;-62
2023/01/31 10:14:39;;;;;;;5.53;1.35;;;20.90;61.80;;;;;;5101381;28;20224;-62
2023/01/31 10:17:15;;;;;;;4.82;1.27;;;21.00;61.70;;;;;;5091384;28;20226;-63
2023/01/31 10:19:46;;;;;;;7.25;1.80;;;21.00;61.80;;;;;;5094134;28;20252;-62
2023/01/31 10:22:20;;;;;;;3.45;1.40;;;21.00;61.80;;;;;;5112686;28;20226;-65
2023/01/31 10:24:55;;;;;;;8.27;2.20;;;21.00;61.70;;;;;;5112392;28;20226;-62
2023/01/31 10:27:39;;;;;;;4.70;1.60;;;21.00;61.70;;;;;;5096495;28;20211;-62
2023/01/31 10:30:15;;;;;;;3.42;1.40;;;21.00;61.60;;;;;;5103438;28;20199;-62
2023/01/31 10:32:50;;;;;;;3.40;1.30;;;21.00;61.80;;;;;;5111493;28;20196;-62
2023/01/31 10:35:23;;;;;;;3.10;1.58;;;21.00;61.70;;;;;;5111938;28;20229;-63
2023/01/31 10:37:55;;;;;;;4.53;2.08;;;21.00;61.70;;;;;;5113726;28;20207;-61
2023/01/31 10:40:28;;;;;;;8.00;1.35;;;20.90;61.60;;;;;;5113439;28;20203;-61
2023/01/31 10:43:02;;;;;;;4.60;1.58;;;20.90;62.30;;;;;;5117315;28;20207;-62
2023/01/31 10:45:32;;;;;;;4.35;1.63;;;20.90;61.40;;;;;;5114043;28;20224;-62
2023/01/31 10:48:14;;;;;;;5.07;1.20;;;20.90;61.70;;;;;;5108518;28;20204;-62
2023/01/31 10:50:56;;;;;;;6.80;2.03;;;20.90;61.80;;;;;;5116268;28;20204;-62
2023/01/31 10:53:49;;;;;;;7.00;1.75;;;21.00;61.90;;;;;;5120540;28;20199;-61
2023/01/31 10:56:26;;;;;;;4.20;1.60;;;21.10;61.50;;;;;;5091362;28;20253;-63
2023/01/31 10:58:56;;;;;;;3.55;1.25;;;21.10;61.10;;;;;;5102041;28;20234;-63
2023/01/31 11:01:24;;;;;;;4.35;1.85;;;21.10;60.90;;;;;;5091046;28;20199;-63
2023/01/31 11:03:56;;;;;;;11.00;2.30;;;21.40;65.90;;;;;;5091528;28;20228;-63
2023/01/31 11:06:24;;;;;;;9.15;2.30;;;21.20;60.60;;;;;;5111895;28;20199;-63
2023/01/31 11:08:56;;;;;;;6.25;1.63;;;21.20;59.90;;;;;;5116545;22;20223;-62
2023/01/31 11:11:55;;;;;;;4.82;1.40;;;21.30;60.40;;;;;;5090328;28;20211;-66
2023/01/31 11:14:24;;;;;;;4.90;1.38;;;21.30;60.30;;;;;;5091245;28;20582;-65
2023/01/31 11:16:59;;;;;;;9.15;1.40;;;21.80;60.50;;;;;;5091565;28;20672;-63
2023/01/31 11:19:35;;;;;;;16.67;2.55;;;21.30;60.10;;;;;;5095272;28;20722;-63
2023/01/31 11:22:07;;;;;;;4.65;1.38;;;21.30;59.90;;;;;;5109345;28;20722;-63
2023/01/31 11:24:40;;;;;;;8.50;1.75;;;21.30;60.20;;;;;;5105879;28;20678;-63
2023/01/31 11:27:11;;;;;;;8.57;2.05;;;21.30;60.50;;;;;;5111430;28;20230;-64
2023/01/31 11:29:42;;;;;;;4.80;1.20;;;21.30;61.10;;;;;;5109477;28;20662;-65
2023/01/31 11:32:18;;;;;;;9.45;2.20;;;21.30;61.00;;;;;;5091585;28;20671;-65
2023/01/31 11:34:57;;;;;;;2.95;1.42;;;21.30;60.90;;;;;;5096684;28;20663;-62
2023/01/31 11:37:28;;;;;;;5.80;1.48;;;21.30;61.30;;;;;;5111814;28;20702;-64
2023/01/31 11:40:00;;;;;;;3.20;1.50;;;21.20;61.10;;;;;;5110204;28;20221;-63
2023/01/31 11:42:29;;;;;;;5.35;1.67;;;21.20;61.20;;;;;;5105077;28;20265;-64
2023/01/31 11:45:00;;;;;;;2.92;1.42;;;21.20;61.10;;;;;;5106261;28;20719;-63
2023/01/31 11:47:42;;;;;;;8.75;2.55;;;21.20;61.50;;;;;;5108044;28;20231;-64
2023/01/31 11:50:21;;;;;;;6.68;1.52;;;21.30;61.50;;;;;;5102593;28;20568;-63
2023/01/31 11:52:55;;;;;;;8.35;1.70;;;21.30;61.90;;;;;;5097000;28;20229;-63
2023/01/31 11:55:23;;;;;;;4.70;1.83;;;21.40;62.40;;;;;;5091010;28;20706;-63
2023/01/31 11:57:57;;;;;;;4.75;1.50;;;21.40;63.10;;;;;;5091016;28;20804;-63
2023/01/31 12:00:27;;;;;;;3.53;1.80;;;21.50;62.50;;;;;;5091426;28;20219;-61
2023/01/31 12:03:01;;;;;;;3.50;1.40;;;21.50;62.20;;;;;;5110853;28;20269;-60
2023/01/31 12:05:37;;;;;;;5.15;1.77;;;21.60;62.10;;;;;;5115519;28;20263;-60
2023/01/31 12:08:06;;;;;;;2.78;1.35;;;21.60;61.60;;;;;;5115227;28;20569;-60
2023/01/31 12:10:40;;;;;;;7.32;1.67;;;21.60;61.40;;;;;;5105565;28;20691;-61
2023/01/31 12:13:15;;;;;;;7.35;2.17;;;21.70;61.30;;;;;;5094882;28;20216;-61
2023/01/31 12:15:54;;;;;;;9.00;1.80;;;21.60;61.10;;;;;;5105636;28;20730;-61
2023/01/31 12:18:46;;;;;;;5.40;1.70;;;21.60;61.20;;;;;;5114284;28;20215;-61
2023/01/31 12:21:21;;;;;;;7.05;1.25;;;21.70;61.30;;;;;;5095570;28;20745;-61
2023/01/31 12:24:02;;;;;;;15.13;1.88;;;21.60;61.20;;;;;;5114623;28;20720;-61
2023/01/31 12:26:39;;;;;;;4.25;1.60;;;21.60;61.20;;;;;;5114666;28;20659;-60
2023/01/31 12:29:24;;;;;;;7.80;1.70;;;21.60;61.40;;;;;;5111185;28;20282;-60
2023/01/31 12:32:14;;;;;;;6.22;1.40;;;21.60;61.40;;;;;;5115119;28;20772;-60
2023/01/31 12:35:04;;;;;;;2.95;1.45;;;21.50;61.50;;;;;;5114835;28;20203;-60
2023/01/31 12:37:46;;;;;;;3.30;1.40;;;21.50;61.60;;;;;;5115041;28;20591;-61
2023/01/31 12:40:37;;;;;;;5.60;1.42;;;21.40;61.60;;;;;;5114735;28;20740;-61
2023/01/31 12:43:17;;;;;;;3.45;1.48;;;21.50;61.90;;;;;;5115062;28;20649;-61
2023/01/31 12:45:59;;;;;;;1.55;1.10;;;21.50;62.00;;;;;;5110920;28;20291;-61
2023/01/31 12:48:49;;;;;;;4.65;1.40;;;21.50;61.90;;;;;;5101694;28;20292;-60
2023/01/31 12:51:32;;;;;;;2.50;1.30;;;21.60;62.30;;;;;;5110698;28;20203;-61
2023/01/31 12:54:20;;;;;;;4.22;1.80;;;21.60;62.00;;;;;;5093675;28;20204;-61
2023/01/31 12:56:59;;;;;;;3.65;1.60;;;21.70;63.30;;;;;;5097108;28;20200;-61
2023/01/31 12:59:37;;;;;;;5.28;1.95;;;21.60;61.70;;;;;;5095010;28;20586;-61
2023/01/31 13:02:20;;;;;;;7.88;1.70;;;21.70;61.90;;;;;;5114785;28;20270;-61
2023/01/31 13:04:52;;;;;;;6.28;2.03;;;21.70;61.80;;;;;;5116606;28;20219;-61
2023/01/31 13:07:34;;;;;;;3.53;1.30;;;21.80;61.90;;;;;;5131277;28;20222;-61
2023/01/31 13:10:15;;;;;;;3.85;1.25;;;21.80;61.90;;;;;;5115964;28;20213;-62
2023/01/31 13:12:44;;;;;;;3.85;1.45;;;21.70;61.80;;;;;;5126153;28;20215;-63
2023/01/31 13:15:19;;;;;;;4.30;1.90;;;21.80;61.80;;;;;;5104968;28;20199;-62
2023/01/31 13:17:51;;;;;;;2.53;1.50;;;21.70;61.80;;;;;;5104231;28;20211;-62
2023/01/31 13:20:28;;;;;;;8.52;1.23;;;21.70;61.80;;;;;;5110350;28;20203;-62
2023/01/31 13:23:02;;;;;;;6.35;1.58;;;21.80;62.00;;;;;;5113945;28;20199;-62
2023/01/31 13:25:37;;;;;;;2.78;1.17;;;21.70;61.90;;;;;;5104525;28;20195;-62
2023/01/31 13:28:13;;;;;;;2.95;1.92;;;21.70;61.30;;;;;;5102441;28;20298;-62
2023/01/31 13:30:44;;;;;;;6.90;1.63;;;21.70;61.90;;;;;;5104108;28;20613;-63
2023/01/31 13:33:24;;;;;;;4.47;2.30;;;21.70;62.00;;;;;;5099958;28;20234;-62
2023/01/31 13:36:01;;;;;;;4.70;1.30;;;21.60;61.90;;;;;;5099815;28;20278;-62
2023/01/31 13:38:37;;;;;;;5.13;1.77;;;21.60;62.20;;;;;;5094302;28;20215;-62
2023/01/31 13:41:16;;;;;;;2.10;1.48;;;21.50;62.30;;;;;;5111615;28;20244;-62
2023/01/31 13:43:45;;;;;;;3.25;1.30;;;21.50;62.30;;;;;;5113366;28;20347;-62
2023/01/31 13:46:19;;;;;;;2.65;1.20;;;21.50;62.70;;;;;;5093056;28;20203;-62
2023/01/31 13:48:51;;;;;;;2.80;1.20;;;21.50;62.90;;;;;;5097147;28;20243;-62
2023/01/31 13:51:24;;;;;;;3.60;1.60;;;21.50;62.90;;;;;;5103314;28;20191;-62
2023/01/31 13:53:57;;;;;;;4.05;1.00;;;21.60;62.70;;;;;;5103234;28;20192;-62
2023/01/31 13:56:30;;;;;;;2.40;1.10;;;21.60;62.70;;;;;;5100784;28;20195;-62
2023/01/31 13:59:00;;;;;;;3.05;1.35;;;21.70;62.80;;;;;;5101912;28;20223;-61
2023/01/31 14:01:31;;;;;;;1.85;1.17;;;21.70;62.80;;;;;;5092613;28;20257;-61
2023/01/31 14:04:24;;;;;;;5.35;1.58;;;21.70;62.70;;;;;;5106946;28;20222;-61
2023/01/31 14:06:57;;;;;;;3.70;1.60;;;23.90;69.40;;;;;;5092449;28;20267;-61
2023/01/31 14:09:27;;;;;;;1.70;1.17;;;21.90;62.70;;;;;;5093102;28;20254;-61
2023/01/31 14:11:58;;;;;;;5.75;1.20;;;22.00;62.80;;;;;;5112243;28;20195;-61
2023/01/31 14:14:40;;;;;;;6.78;1.50;;;21.90;62.50;;;;;;5112884;28;20222;-62
2023/01/31 14:17:12;;;;;;;1.75;1.00;;;21.90;62.50;;;;;;5113506;28;20219;-64
2023/01/31 14:20:07;;;;;;;4.20;1.65;;;22.00;62.50;;;;;;5110148;28;20214;-62